Time;durP1;ratioP1;P1;durP2;ratioP2;P2;SDS_P1;SDS_P2;PMS_P1;PMS_P2;Temp;Humidity;BMP_temperature;BMP_pressure;BME280_temperature;BME280_humidity;BME280_pressure;Samples;Min_cycle;Max_cycle;Signal;HPM_P1;HPM_P2
2022/12/25 00:01:52;;;;;;;;;;;;;;;12.95;53.58;99927.31;4353802;32;34253;-65
2022/12/25 00:04:19;;;;;;;;;;;;;;;13.02;53.38;99936.56;4356955;32;34210;-64
2022/12/25 00:06:46;;;;;;;;;;;;;;;13.10;53.29;99937.75;4350154;32;33778;-64
2022/12/25 00:09:14;;;;;;;;;;;;;;;13.03;53.46;99945.47;4356307;32;32767;-64
2022/12/25 00:11:41;;;;;;;;;;;;;;;12.65;54.21;99945.88;4353917;32;34588;-64
2022/12/25 00:14:08;;;;;;;;;;;;;;;12.77;54.20;99955.66;4355551;32;33480;-64
2022/12/25 00:16:35;;;;;;;;;;;;;;;13.03;53.35;99956.22;4356190;32;33208;-65
2022/12/25 00:19:03;;;;;;;;;;;;;;;13.21;52.87;99957.41;4358195;32;32615;-65
2022/12/25 00:21:32;;;;;;;;;;;;;;;13.33;52.43;99957.44;4362159;32;33994;-65
2022/12/25 00:24:00;;;;;;;;;;;;;;;13.32;52.43;99955.69;4358656;32;35482;-65
2022/12/25 00:26:28;;;;;;;;;;;;;;;13.50;51.91;99955.03;4358755;32;33601;-65
2022/12/25 00:28:56;;;;;;;;;;;;;;;13.55;51.71;99962.72;4353487;32;33704;-64
2022/12/25 00:31:23;;;;;;;;;;;;;;;13.58;51.46;99978.59;4352331;32;34643;-65
2022/12/25 00:33:51;;;;;;;;;;;;;;;13.61;51.42;99980.16;4339609;32;35516;-65
2022/12/25 00:36:19;;;;;;;;;;;;;;;13.56;51.62;99977.87;4351393;32;33555;-65
2022/12/25 00:38:46;;;;;;;;;;;;;;;13.63;51.45;99978.19;4359705;32;34711;-65
2022/12/25 00:41:15;;;;;;;;;;;;;;;13.67;51.33;99982.34;4362402;32;34251;-65
2022/12/25 00:43:42;;;;;;;;;;;;;;;13.64;51.46;99979.91;4362107;32;34552;-65
2022/12/25 00:46:10;;;;;;;;;;;;;;;13.68;51.33;99982.22;4361985;32;34333;-65
2022/12/25 00:48:38;;;;;;;;;;;;;;;13.64;51.39;100002.28;4358026;32;34099;-64
2022/12/25 00:51:06;;;;;;;;;;;;;;;13.75;50.99;100015.69;4354689;32;34564;-63
2022/12/25 00:53:33;;;;;;;;;;;;;;;13.77;51.02;100014.69;4359912;32;35111;-63
2022/12/25 00:56:03;;;;;;;;;;;;;;;13.61;51.35;99999.88;4361405;32;31614;-63
2022/12/25 00:58:31;;;;;;;;;;;;;;;13.66;51.33;100010.22;4358400;32;35240;-62
2022/12/25 01:00:58;;;;;;;;;;;;;;;13.65;51.39;100008.53;4361032;32;34964;-62
2022/12/25 01:03:26;;;;;;;;;;;;;;;13.63;51.27;99997.88;4358788;32;33149;-63
2022/12/25 01:05:57;;;;;;;;;;;;;;;13.70;51.14;99993.69;4358299;32;34128;-65
2022/12/25 01:08:25;;;;;;;;;;;;;;;13.51;51.68;99991.72;4358700;32;35318;-65
2022/12/25 01:10:53;;;;;;;;;;;;;;;13.55;51.58;99997.69;4359070;32;34434;-65
2022/12/25 01:13:20;;;;;;;;;;;;;;;13.55;51.53;100011.13;4359144;32;35139;-64
2022/12/25 01:15:48;;;;;;;;;;;;;;;13.60;51.16;100013.41;4361361;32;31739;-64
2022/12/25 01:18:15;;;;;;;;;;;;;;;13.58;51.16;100008.19;4360321;32;35289;-65
2022/12/25 01:20:42;;;;;;;;;;;;;;;13.54;51.41;100012.09;4360884;32;35115;-65
2022/12/25 01:23:09;;;;;;;;;;;;;;;13.33;51.98;100017.41;4361862;32;34213;-65
2022/12/25 01:25:37;;;;;;;;;;;;;;;13.57;51.29;100006.44;4361147;32;33259;-64
2022/12/25 01:28:04;;;;;;;;;;;;;;;13.62;51.07;100009.63;4356183;32;33820;-65
2022/12/25 01:30:32;;;;;;;;;;;;;;;13.61;51.07;100007.06;4361400;32;35716;-65
2022/12/25 01:32:59;;;;;;;;;;;;;;;13.61;51.05;99999.88;4358277;32;35558;-64
2022/12/25 01:35:26;;;;;;;;;;;;;;;13.61;51.08;100004.38;4361547;32;34536;-64
2022/12/25 01:37:54;;;;;;;;;;;;;;;13.63;50.95;100016.72;4358262;32;34248;-64
2022/12/25 01:40:21;;;;;;;;;;;;;;;13.55;51.11;100024.56;4362248;32;35475;-64
2022/12/25 01:42:49;;;;;;;;;;;;;;;13.49;51.06;100025.06;4360459;32;34625;-64
2022/12/25 01:45:29;;;;;;;;;;;;;;;13.47;51.05;100022.50;4354671;32;32432;-64
2022/12/25 01:47:57;;;;;;;;;;;;;;;13.37;51.21;100026.94;4358953;32;34017;-64
2022/12/25 01:50:24;;;;;;;;;;;;;;;13.18;51.86;100018.62;4356277;32;34905;-64
2022/12/25 01:52:51;;;;;;;;;;;;;;;13.08;52.23;100026.56;4357019;32;37997;-64
2022/12/25 01:55:18;;;;;;;;;;;;;;;12.80;53.04;100030.63;4356352;32;33251;-63
2022/12/25 01:57:46;;;;;;;;;;;;;;;12.84;53.02;100024.03;4359118;32;34198;-64
2022/12/25 02:00:15;;;;;;;;;;;;;;;12.98;52.66;100022.94;4351043;32;34226;-64
2022/12/25 02:02:42;;;;;;;;;;;;;;;13.11;52.25;100026.34;4356409;32;34684;-64
2022/12/25 02:05:18;;;;;;;;;;;;;;;13.17;51.71;100023.16;4353489;32;33737;-64
2022/12/25 02:07:46;;;;;;;;;;;;;;;13.12;51.83;100024.50;4358843;32;34858;-64
2022/12/25 02:10:13;;;;;;;;;;;;;;;12.85;52.62;100024.91;4350630;32;33090;-64
2022/12/25 02:12:40;;;;;;;;;;;;;;;12.89;52.68;100018.28;4354250;32;34147;-64
2022/12/25 02:15:12;;;;;;;;;;;;;;;12.76;53.34;100027.31;4346429;32;33657;-64
2022/12/25 02:17:57;;;;;;;;;;;;;;;12.70;53.64;100021.59;4355686;32;34104;-64
2022/12/25 02:20:28;;;;;;;;;;;;;;;12.76;53.52;100027.31;4357500;32;35406;-64
2022/12/25 02:23:02;;;;;;;;;;;;;;;12.63;54.16;100023.06;4344725;32;34240;-64
2022/12/25 02:25:48;;;;;;;;;;;;;;;12.66;54.09;100018.28;4331400;32;876235;-64
2022/12/25 02:28:25;;;;;;;;;;;;;;;12.34;54.81;100018.97;4349722;32;34219;-64
2022/12/25 02:30:59;;;;;;;;;;;;;;;12.60;54.34;100032.19;4343482;32;33571;-64
2022/12/25 02:36:15;;;;;;;;;;;;;;;12.76;54.13;100021.09;4356036;32;31999;-64
2022/12/25 02:39:56;;;;;;;;;;;;;;;12.72;54.37;100031.22;4354633;32;35363;-64
2022/12/25 02:41:30;;;;;;;;;;;;;;;12.86;53.92;100035.50;4354980;32;34916;-63
2022/12/25 03:11:51;;;;;;;;;;;;;;;12.85;53.68;100073.25;4349544;32;34039;-63
2022/12/25 03:17:04;;;;;;;;;;;;;;;12.92;53.27;100078.00;4353770;32;33403;-62
2022/12/25 03:27:54;;;;;;;;;;;;;;;12.76;54.10;100072.13;4359858;32;33974;-63
2022/12/25 03:33:09;;;;;;;;;;;;;;;12.78;54.44;100086.31;4343540;32;35482;-63
2022/12/25 03:36:07;;;;;;;;;;;;;;;12.43;54.75;100083.69;4357420;32;35156;-63
2022/12/25 04:37:50;;;;;;;;;;;;;;;13.23;51.21;100099.75;4357115;32;32244;-64
2022/12/25 04:40:18;;;;;;;;;;;;;;;13.22;51.20;100103.41;4354709;32;33829;-63
2022/12/25 04:42:45;;;;;;;;;;;;;;;13.05;51.44;100102.91;4355471;32;34287;-68
2022/12/25 04:45:13;;;;;;;;;;;;;;;12.91;52.02;100094.25;4348400;32;34596;-65
2022/12/25 04:47:40;;;;;;;;;;;;;;;12.90;51.75;100108.66;4354517;32;34775;-64
2022/12/25 04:50:07;;;;;;;;;;;;;;;13.08;51.21;100104.50;4353930;32;35546;-65
2022/12/25 04:52:36;;;;;;;;;;;;;;;12.96;51.36;100103.62;4354923;32;32971;-64
2022/12/25 04:55:03;;;;;;;;;;;;;;;13.06;50.94;100103.75;4355131;32;34210;-64
2022/12/25 04:57:31;;;;;;;;;;;;;;;13.11;50.56;100098.91;4357284;32;33173;-64
2022/12/25 04:59:58;;;;;;;;;;;;;;;12.98;51.01;100104.38;4351708;32;33870;-64
2022/12/25 05:02:26;;;;;;;;;;;;;;;12.88;51.16;100121.34;4355206;32;33831;-64
2022/12/25 05:04:53;;;;;;;;;;;;;;;12.87;51.17;100119.63;4356944;32;35554;-65
2022/12/25 05:07:21;;;;;;;;;;;;;;;12.89;51.20;100115.00;4354251;32;32240;-65
2022/12/25 05:09:48;;;;;;;;;;;;;;;12.93;50.94;100108.41;4351681;32;34251;-65
2022/12/25 05:12:15;;;;;;;;;;;;;;;13.02;50.69;100108.53;4356137;32;34128;-65
2022/12/25 05:14:43;;;;;;;;;;;;;;;13.07;50.42;100105.50;4355352;32;34844;-64
2022/12/25 05:17:10;;;;;;;;;;;;;;;12.96;50.90;100100.94;4354756;32;33793;-64
2022/12/25 05:19:37;;;;;;;;;;;;;;;12.99;50.83;100111.47;4349026;32;35233;-64
2022/12/25 05:22:05;;;;;;;;;;;;;;;13.09;50.37;100116.97;4356129;32;32918;-64
2022/12/25 05:24:32;;;;;;;;;;;;;;;13.18;50.17;100120.75;4356102;32;34394;-64
2022/12/25 05:26:59;;;;;;;;;;;;;;;13.18;50.18;100113.53;4358253;32;34543;-64
2022/12/25 05:29:27;;;;;;;;;;;;;;;13.16;50.16;100120.91;4358143;32;34922;-64
2022/12/25 05:31:54;;;;;;;;;;;;;;;13.21;50.12;100121.38;4353130;32;34240;-64
2022/12/25 05:34:21;;;;;;;;;;;;;;;13.17;50.28;100116.38;4355435;32;35036;-64
2022/12/25 05:36:48;;;;;;;;;;;;;;;13.31;49.79;100113.44;4360216;32;32819;-64
2022/12/25 05:39:16;;;;;;;;;;;;;;;13.31;49.92;100117.97;4358345;32;33709;-64
2022/12/25 05:41:43;;;;;;;;;;;;;;;13.33;49.84;100116.03;4356159;32;34279;-64
2022/12/25 05:44:10;;;;;;;;;;;;;;;13.24;50.14;100123.84;4354574;32;33760;-64
2022/12/25 05:46:38;;;;;;;;;;;;;;;13.17;50.29;100122.59;4356048;32;33593;-64
2022/12/25 05:49:05;;;;;;;;;;;;;;;13.12;50.53;100130.16;4353968;32;35202;-64
2022/12/25 05:51:33;;;;;;;;;;;;;;;13.20;50.31;100127.72;4359656;32;33641;-64
2022/12/25 05:54:00;;;;;;;;;;;;;;;13.31;49.97;100126.91;4357635;32;34539;-64
2022/12/25 05:56:27;;;;;;;;;;;;;;;13.34;49.97;100139.25;4358768;32;33439;-64
2022/12/25 05:58:55;;;;;;;;;;;;;;;13.29;50.06;100131.56;4360198;32;34190;-64
2022/12/25 06:01:24;;;;;;;;;;;;;;;13.34;49.79;100131.19;4349259;32;34382;-64
2022/12/25 06:03:51;;;;;;;;;;;;;;;13.26;49.79;100129.13;4355473;32;34400;-64
2022/12/25 06:06:19;;;;;;;;;;;;;;;13.20;49.87;100138.47;4352639;32;31743;-64
2022/12/25 06:08:46;;;;;;;;;;;;;;;13.21;49.59;100140.19;4357933;32;34149;-64
2022/12/25 06:11:14;;;;;;;;;;;;;;;12.90;50.59;100133.66;4354968;32;33256;-64
2022/12/25 06:13:41;;;;;;;;;;;;;;;12.81;50.73;100140.66;4354258;32;34467;-65
2022/12/25 06:16:09;;;;;;;;;;;;;;;12.96;50.27;100135.03;4358531;32;33843;-65
2022/12/25 06:18:37;;;;;;;;;;;;;;;12.94;50.33;100118.19;4357775;32;34188;-65
2022/12/25 06:21:06;;;;;;;;;;;;;;;12.94;50.45;100110.12;4357020;32;34994;-65
2022/12/25 06:23:33;;;;;;;;;;;;;;;12.91;50.21;100121.13;4357040;32;35640;-65
2022/12/25 06:26:08;;;;;;;;;;;;;;;12.92;50.40;100129.03;4357217;32;34223;-65
2022/12/25 06:28:35;;;;;;;;;;;;;;;12.93;50.24;100128.06;4353074;32;33930;-65
2022/12/25 06:31:10;;;;;;;;;;;;;;;12.94;50.31;100126.25;4357335;32;32546;-65
2022/12/25 06:33:37;;;;;;;;;;;;;;;13.00;49.87;100123.94;4352676;32;33839;-65
2022/12/25 06:36:08;;;;;;;;;;;;;;;13.00;49.78;100123.94;4354668;32;34317;-65
2022/12/25 06:38:36;;;;;;;;;;;;;;;13.00;49.66;100134.69;4357444;32;33589;-65
2022/12/25 06:41:04;;;;;;;;;;;;;;;13.02;49.47;100139.94;4352927;32;34461;-65
2022/12/25 06:43:31;;;;;;;;;;;;;;;12.26;51.43;100138.63;4352992;32;35073;-62
2022/12/25 06:46:09;;;;;;;;;;;;;;;12.52;50.75;100152.75;4355027;32;33160;-63
2022/12/25 06:48:37;;;;;;;;;;;;;;;12.60;50.57;100158.41;4358411;32;34885;-63
2022/12/25 06:51:05;;;;;;;;;;;;;;;12.57;50.80;100159.50;4355525;32;33796;-63
2022/12/25 06:53:32;;;;;;;;;;;;;;;12.77;50.68;100163.31;4358458;32;34561;-63
2022/12/25 06:56:08;;;;;;;;;;;;;;;13.31;49.57;100171.75;4355974;32;33282;-64
2022/12/25 06:58:35;;;;;;;;;;;;;;;14.14;47.72;100164.03;4355346;32;33831;-63
2022/12/25 07:01:13;;;;;;;;;;;;;;;14.42;46.27;100164.44;4358677;32;32858;-63
2022/12/25 07:03:42;;;;;;;;;;;;;;;14.33;46.43;100168.75;4344356;32;33033;-66
2022/12/25 07:06:09;;;;;;;;;;;;;;;14.60;46.07;100173.66;4357612;32;33510;-64
2022/12/25 07:08:36;;;;;;;;;;;;;;;14.53;45.31;100174.31;4357366;32;34443;-63
2022/12/25 07:11:04;;;;;;;;;;;;;;;14.34;46.31;100181.22;4357521;32;34338;-64
2022/12/25 07:13:31;;;;;;;;;;;;;;;14.63;46.04;100189.56;4355907;32;34694;-64
2022/12/25 07:15:58;;;;;;;;;;;;;;;15.00;45.21;100196.37;4357091;32;33333;-64
2022/12/25 07:18:26;;;;;;;;;;;;;;;15.07;44.67;100200.25;4357102;32;34211;-64
2022/12/25 07:20:54;;;;;;;;;;;;;;;15.46;44.25;100203.16;4359123;32;33063;-64
2022/12/25 07:23:22;;;;;;;;;;;;;;;16.35;42.25;100217.66;4357229;32;33290;-64
2022/12/25 07:25:56;;;;;;;;;;;;;;;16.24;42.11;100220.47;4355394;32;31893;-64
2022/12/25 07:28:23;;;;;;;;;;;;;;;16.08;42.04;100221.00;4357562;32;35320;-64
2022/12/25 07:30:51;;;;;;;;;;;;;;;16.18;41.93;100218.31;4354645;32;33722;-64
2022/12/25 07:33:18;;;;;;;;;;;;;;;16.91;40.46;100213.41;4359065;32;34134;-64
2022/12/25 07:35:45;;;;;;;;;;;;;;;17.81;38.81;100218.31;4357009;32;32387;-64
2022/12/25 07:38:13;;;;;;;;;;;;;;;18.98;36.50;100222.97;4357840;32;34048;-64
2022/12/25 07:40:40;;;;;;;;;;;;;;;19.59;35.64;100221.16;4356715;32;32757;-64
2022/12/25 07:43:07;;;;;;;;;;;;;;;19.98;34.26;100227.81;4356149;32;35401;-64
2022/12/25 07:45:35;;;;;;;;;;;;;;;20.15;34.20;100230.59;4362477;32;34298;-64
2022/12/25 07:48:02;;;;;;;;;;;;;;;20.73;33.27;100235.16;4358155;32;32972;-64
2022/12/25 07:50:32;;;;;;;;;;;;;;;20.84;32.52;100245.75;4357447;32;34209;-64
2022/12/25 07:53:00;;;;;;;;;;;;;;;19.96;33.88;100253.44;4351533;32;33223;-64
2022/12/25 07:55:27;;;;;;;;;;;;;;;18.96;35.77;100262.94;4352608;32;33456;-64
2022/12/25 07:57:54;;;;;;;;;;;;;;;18.43;36.86;100261.03;4357554;32;35173;-63
2022/12/25 08:00:28;;;;;;;;;;;;;;;18.58;36.82;100262.19;4355301;32;35536;-63
2022/12/25 08:02:55;;;;;;;;;;;;;;;18.53;36.89;100265.38;4357075;32;34040;-64
2022/12/25 08:05:23;;;;;;;;;;;;;;;18.89;36.63;100267.28;4348132;32;31957;-63
2022/12/25 08:07:51;;;;;;;;;;;;;;;19.05;36.50;100262.00;4358986;32;34323;-63
2022/12/25 08:10:24;;;;;;;;;;;;;;;19.32;35.97;100266.44;4356055;32;34345;-64
2022/12/25 08:12:54;;;;;;;;;;;;;;;19.32;35.98;100271.88;4355358;32;33311;-63
2022/12/25 08:15:21;;;;;;;;;;;;;;;19.41;35.80;100276.34;4354325;32;34756;-64
2022/12/25 08:17:49;;;;;;;;;;;;;;;19.75;35.40;100273.72;4355941;32;33065;-63
2022/12/25 08:20:16;;;;;;;;;;;;;;;20.18;34.70;100281.91;4355525;32;34682;-64
2022/12/25 08:22:43;;;;;;;;;;;;;;;20.06;34.66;100278.63;4357114;32;34886;-64
2022/12/25 08:25:10;;;;;;;;;;;;;;;19.84;34.94;100274.63;4357213;32;33231;-64
2022/12/25 08:27:38;;;;;;;;;;;;;;;20.04;34.77;100279.81;4357742;32;33616;-64
2022/12/25 08:30:06;;;;;;;;;;;;;;;20.25;34.42;100278.34;4353986;32;34138;-64
2022/12/25 08:32:34;;;;;;;;;;;;;;;20.35;34.37;100288.25;4354495;32;35501;-64
2022/12/25 08:35:01;;;;;;;;;;;;;;;20.37;34.43;100286.22;4351644;32;33782;-64
2022/12/25 08:37:29;;;;;;;;;;;;;;;20.42;34.03;100278.44;4354577;32;33609;-64
2022/12/25 08:39:56;;;;;;;;;;;;;;;19.77;35.29;100271.72;4356636;32;33574;-64
2022/12/25 08:42:23;;;;;;;;;;;;;;;18.93;36.62;100279.53;4359486;32;34384;-64
2022/12/25 08:44:51;;;;;;;;;;;;;;;19.07;36.69;100279.84;4355622;32;34214;-64
2022/12/25 08:47:18;;;;;;;;;;;;;;;18.91;36.73;100276.97;4356177;32;33027;-64
2022/12/25 08:49:45;;;;;;;;;;;;;;;19.20;36.47;100284.00;4353481;32;34555;-63
2022/12/25 08:52:13;;;;;;;;;;;;;;;19.11;36.93;100283.09;4356558;32;34322;-64
2022/12/25 08:54:40;;;;;;;;;;;;;;;17.78;38.83;100289.00;4352459;32;33919;-63
2022/12/25 08:57:08;;;;;;;;;;;;;;;17.80;39.30;100291.56;4342129;32;32475;-64
2022/12/25 08:59:35;;;;;;;;;;;;;;;18.31;38.67;100288.34;4356870;32;34982;-64
2022/12/25 09:02:02;;;;;;;;;;;;;;;18.71;38.31;100287.06;4357404;32;35567;-64
2022/12/25 09:04:30;;;;;;;;;;;;;;;19.99;35.57;100291.16;4351427;32;32527;-64
2022/12/25 09:06:57;;;;;;;;;;;;;;;20.11;35.10;100298.00;4356425;32;35371;-64
2022/12/25 09:09:25;;;;;;;;;;;;;;;19.60;35.55;100294.31;4358011;32;35254;-64
2022/12/25 09:11:53;;;;;;;;;;;;;;;21.25;32.94;100294.75;4356881;32;34662;-64
2022/12/25 09:14:20;;;;;;;;;;;;;;;21.16;33.20;100288.44;4358536;32;34191;-64
2022/12/25 09:16:48;;;;;;;;;;;;;;;21.10;33.37;100291.84;4356200;32;34239;-64
2022/12/25 09:19:15;;;;;;;;;;;;;;;20.74;34.05;100295.84;4355881;32;34128;-64
2022/12/25 09:21:43;;;;;;;;;;;;;;;21.44;33.08;100287.25;4355483;32;35225;-64
2022/12/25 09:24:10;;;;;;;;;;;;;;;22.84;30.93;100286.56;4355035;32;33579;-64
2022/12/25 09:26:37;;;;;;;;;;;;;;;23.76;29.33;100281.03;4353532;32;34002;-64
2022/12/25 09:29:05;;;;;;;;;;;;;;;23.88;29.46;100278.66;4350609;32;34659;-64
2022/12/25 09:31:32;;;;;;;;;;;;;;;23.73;29.91;100286.88;4356854;32;35898;-64
2022/12/25 09:34:00;;;;;;;;;;;;;;;23.85;30.06;100284.50;4355081;32;33063;-64
2022/12/25 09:36:27;;;;;;;;;;;;;;;23.87;30.16;100286.03;4358686;32;34259;-64
2022/12/25 09:38:54;;;;;;;;;;;;;;;23.69;30.74;100282.81;4355292;32;34938;-64
2022/12/25 09:41:27;;;;;;;;;;;;;;;23.25;31.45;100283.56;4357435;32;34383;-64
2022/12/25 09:44:00;;;;;;;;;;;;;;;23.63;30.47;100286.28;4356404;32;35426;-64
2022/12/25 09:46:27;;;;;;;;;;;;;;;24.17;29.72;100292.34;4357274;32;34504;-64
2022/12/25 09:49:04;;;;;;;;;;;;;;;25.27;28.09;100291.31;4355928;32;33180;-64
2022/12/25 09:51:32;;;;;;;;;;;;;;;25.33;27.89;100292.44;4351611;32;34298;-64
2022/12/25 09:54:02;;;;;;;;;;;;;;;25.25;27.60;100287.91;4351845;32;31995;-65
2022/12/25 09:56:30;;;;;;;;;;;;;;;25.42;27.42;100295.84;4353666;32;32777;-64
2022/12/25 09:58:57;;;;;;;;;;;;;;;25.70;27.09;100298.63;4355185;32;34502;-64
2022/12/25 10:01:37;;;;;;;;;;;;;;;25.77;26.94;100300.34;4356841;32;34785;-64
2022/12/25 10:04:21;;;;;;;;;;;;;;;25.28;27.25;100295.75;4360539;32;34571;-64
2022/12/25 10:06:51;;;;;;;;;;;;;;;25.28;27.16;100289.44;4345397;32;34316;-65
2022/12/25 10:09:19;;;;;;;;;;;;;;;25.08;27.14;100301.00;4360197;32;34223;-64
2022/12/25 10:12:15;;;;;;;;;;;;;;;24.91;27.80;100290.50;4358085;32;34406;-64
2022/12/25 10:15:01;;;;;;;;;;;;;;;25.13;27.69;100285.91;4351878;32;33101;-64
2022/12/25 10:18:05;;;;;;;;;;;;;;;26.05;26.45;100273.97;4360572;32;35324;-64
2022/12/25 10:20:45;;;;;;;;;;;;;;;27.02;25.15;100261.84;4302959;33;33923;-64
2022/12/25 10:23:17;;;;;;;;;;;;;;;28.77;22.66;100268.53;4353467;32;34255;-65
2022/12/25 10:25:44;;;;;;;;;;;;;;;30.07;21.25;100260.41;4357265;32;33825;-65
2022/12/25 10:28:13;;;;;;;;;;;;;;;30.21;21.01;100263.03;4347610;32;34370;-64
2022/12/25 10:30:44;;;;;;;;;;;;;;;30.60;20.53;100256.19;4355998;32;35092;-66
2022/12/25 10:33:12;;;;;;;;;;;;;;;30.17;20.91;100249.66;4359415;32;37740;-64
2022/12/25 10:35:43;;;;;;;;;;;;;;;30.64;20.35;100249.09;4358754;32;33597;-65
2022/12/25 10:38:12;;;;;;;;;;;;;;;31.08;19.86;100247.00;4358960;32;34163;-64
2022/12/25 10:40:52;;;;;;;;;;;;;;;31.00;19.89;100250.09;4356509;32;33737;-64
2022/12/25 10:43:29;;;;;;;;;;;;;;;29.65;21.31;100254.72;4361948;32;34452;-64
2022/12/25 10:45:57;;;;;;;;;;;;;;;28.39;23.00;100250.03;4349203;32;34071;-65
2022/12/25 10:48:25;;;;;;;;;;;;;;;27.71;23.83;100252.38;4359289;32;34242;-64
2022/12/25 10:50:52;;;;;;;;;;;;;;;27.22;24.63;100245.41;4360169;32;34799;-64
2022/12/25 10:53:22;;;;;;;;;;;;;;;27.09;24.59;100241.56;4347878;32;32552;-64
2022/12/25 10:56:12;;;;;;;;;;;;;;;28.12;23.29;100254.81;4356730;32;34185;-65
2022/12/25 10:58:40;;;;;;;;;;;;;;;28.62;22.65;100251.44;4350820;32;34731;-64
2022/12/25 11:01:07;;;;;;;;;;;;;;;29.46;21.95;100251.03;4358052;32;34452;-65
2022/12/25 11:03:36;;;;;;;;;;;;;;;30.39;20.29;100246.47;4357174;32;34526;-64
2022/12/25 11:06:04;;;;;;;;;;;;;;;30.48;20.49;100245.06;4357560;32;32874;-65
2022/12/25 11:08:32;;;;;;;;;;;;;;;29.70;21.29;100240.25;4342769;32;33054;-66
2022/12/25 11:11:04;;;;;;;;;;;;;;;29.03;22.01;100234.47;4360013;32;34179;-63
2022/12/25 11:13:39;;;;;;;;;;;;;;;29.17;21.86;100230.53;4348223;32;35664;-64
2022/12/25 11:16:13;;;;;;;;;;;;;;;29.58;21.57;100228.25;4356777;32;34346;-64
2022/12/25 11:18:48;;;;;;;;;;;;;;;30.02;21.09;100209.75;4353609;32;33978;-64
2022/12/25 11:21:17;;;;;;;;;;;;;;;30.26;20.81;100222.63;4353359;32;33614;-64
2022/12/25 11:23:45;;;;;;;;;;;;;;;29.74;21.43;100216.66;4357700;32;33081;-65
2022/12/25 11:26:13;;;;;;;;;;;;;;;29.12;21.79;100210.25;4357082;32;31950;-65
2022/12/25 11:28:40;;;;;;;;;;;;;;;28.68;22.13;100209.25;4354182;32;35288;-64
2022/12/25 11:31:11;;;;;;;;;;;;;;;28.13;23.13;100212.47;4360569;32;32602;-64
2022/12/25 11:33:41;;;;;;;;;;;;;;;27.47;23.29;100220.88;4341599;32;34572;-65
2022/12/25 11:36:27;;;;;;;;;;;;;;;26.73;24.29;100213.66;4355799;32;33745;-65
2022/12/25 11:38:54;;;;;;;;;;;;;;;25.83;25.26;100215.62;4349019;32;34445;-64
2022/12/25 11:41:23;;;;;;;;;;;;;;;24.97;26.22;100219.38;4355643;32;34146;-64
2022/12/25 11:43:58;;;;;;;;;;;;;;;24.39;27.40;100218.53;4345099;32;34254;-64
2022/12/25 11:46:26;;;;;;;;;;;;;;;24.00;28.20;100218.91;4360108;32;33551;-64
2022/12/25 11:48:55;;;;;;;;;;;;;;;23.49;28.93;100216.91;4356337;32;34166;-64
2022/12/25 11:51:23;;;;;;;;;;;;;;;23.29;29.41;100215.75;4346073;32;34763;-64
2022/12/25 11:53:55;;;;;;;;;;;;;;;22.85;29.98;100209.09;4354072;32;34294;-64
2022/12/25 11:56:26;;;;;;;;;;;;;;;22.53;30.72;100211.03;4349184;32;33588;-64
2022/12/25 11:59:21;;;;;;;;;;;;;;;22.31;31.08;100210.03;4344554;32;34232;-63
2022/12/25 12:01:52;;;;;;;;;;;;;;;21.91;31.42;100210.19;4356743;32;34840;-64
2022/12/25 12:04:25;;;;;;;;;;;;;;;20.68;34.58;100207.66;4355633;32;34397;-63
2022/12/25 12:07:11;;;;;;;;;;;;;;;20.60;34.69;100208.47;4355099;32;33732;-63
2022/12/25 12:09:42;;;;;;;;;;;;;;;20.05;35.99;100203.56;4343019;32;34545;-64
2022/12/25 12:12:09;;;;;;;;;;;;;;;18.15;39.45;100204.16;4354910;32;33588;-63
2022/12/25 12:14:42;;;;;;;;;;;;;;;18.90;38.39;100201.19;4357907;32;32916;-64
2022/12/25 12:17:11;;;;;;;;;;;;;;;18.29;39.55;100208.19;4348549;32;33195;-63
2022/12/25 12:19:38;;;;;;;;;;;;;;;17.46;40.59;100214.44;4357544;32;34231;-64
2022/12/25 12:22:05;;;;;;;;;;;;;;;18.24;39.70;100219.50;4356808;32;33832;-63
2022/12/25 12:24:39;;;;;;;;;;;;;;;17.70;40.47;100213.06;4357620;32;34312;-64
2022/12/25 12:27:26;;;;;;;;;;;;;;;18.29;39.28;100217.19;4358685;32;34266;-64
2022/12/25 12:29:54;;;;;;;;;;;;;;;17.85;39.85;100219.75;4357218;32;34369;-64
2022/12/25 12:32:25;;;;;;;;;;;;;;;17.36;40.98;100216.31;4343486;32;35413;-64
2022/12/25 12:34:52;;;;;;;;;;;;;;;16.43;43.40;100225.91;4356494;32;33986;-73
2022/12/25 12:37:22;;;;;;;;;;;;;;;17.40;42.16;100233.13;4354411;32;33049;-66
2022/12/25 12:39:51;;;;;;;;;;;;;;;17.26;42.44;100212.78;4357026;32;34013;-68
2022/12/25 12:42:21;;;;;;;;;;;;;;;17.64;40.71;100214.50;4355648;32;33232;-67
2022/12/25 12:44:48;;;;;;;;;;;;;;;17.79;41.09;100217.63;4358110;32;33305;-64
2022/12/25 12:47:28;;;;;;;;;;;;;;;17.33;41.96;100219.31;4349684;32;34681;-63
2022/12/25 12:49:56;;;;;;;;;;;;;;;17.02;43.34;100215.12;4356984;32;33920;-64
2022/12/25 12:52:30;;;;;;;;;;;;;;;15.99;44.81;100222.72;4352672;32;37816;-64
2022/12/25 12:54:58;;;;;;;;;;;;;;;16.06;44.53;100225.72;4352514;32;34742;-63
2022/12/25 12:57:28;;;;;;;;;;;;;;;16.11;45.26;100225.28;4352027;32;33781;-64
2022/12/25 12:59:56;;;;;;;;;;;;;;;15.74;46.85;100237.53;4358476;32;32417;-64
2022/12/25 13:02:26;;;;;;;;;;;;;;;16.27;45.97;100239.94;4355919;32;32978;-64
2022/12/25 13:05:01;;;;;;;;;;;;;;;15.88;47.50;100239.00;4357695;32;34893;-64
2022/12/25 13:07:42;;;;;;;;;;;;;;;15.62;49.25;100235.88;4345591;32;33825;-64
2022/12/25 13:10:21;;;;;;;;;;;;;;;15.97;48.84;100240.03;4346250;32;34469;-65
2022/12/25 13:12:53;;;;;;;;;;;;;;;15.06;49.62;100236.28;4358058;32;34853;-64
2022/12/25 13:15:20;;;;;;;;;;;;;;;15.26;48.66;100243.50;4342394;32;33062;-64
2022/12/25 13:17:48;;;;;;;;;;;;;;;15.57;48.18;100239.00;4358357;32;33462;-64
2022/12/25 13:20:18;;;;;;;;;;;;;;;15.21;49.06;100226.84;4344165;32;32642;-65
2022/12/25 13:22:46;;;;;;;;;;;;;;;15.29;49.20;100227.06;4355783;32;35067;-63
2022/12/25 13:25:20;;;;;;;;;;;;;;;15.79;48.33;100227.19;4356316;32;34641;-64
2022/12/25 13:27:56;;;;;;;;;;;;;;;15.91;48.13;100224.38;4352916;32;33826;-64
2022/12/25 13:30:24;;;;;;;;;;;;;;;15.63;48.49;100226.78;4354247;32;34993;-64
2022/12/25 13:32:51;;;;;;;;;;;;;;;15.18;49.42;100227.13;4357887;32;34371;-63
2022/12/25 13:35:19;;;;;;;;;;;;;;;15.51;48.67;100234.13;4356767;32;34730;-64
2022/12/25 13:37:47;;;;;;;;;;;;;;;15.02;50.24;100235.66;4349722;32;33877;-64
2022/12/25 13:40:17;;;;;;;;;;;;;;;15.63;49.16;100229.47;4353763;32;34985;-64
2022/12/25 13:42:45;;;;;;;;;;;;;;;15.09;50.67;100231.47;4357327;32;33525;-64
2022/12/25 13:45:12;;;;;;;;;;;;;;;15.76;49.44;100235.56;4355862;32;34574;-64
2022/12/25 13:47:41;;;;;;;;;;;;;;;15.43;50.39;100241.19;4358858;32;33851;-64
2022/12/25 13:50:14;;;;;;;;;;;;;;;15.40;50.46;100238.75;4352944;32;34403;-64
2022/12/25 13:52:41;;;;;;;;;;;;;;;15.67;49.69;100241.78;4358464;32;34334;-64
2022/12/25 13:55:13;;;;;;;;;;;;;;;16.10;48.78;100237.94;4357774;32;35462;-64
2022/12/25 13:57:44;;;;;;;;;;;;;;;16.05;48.42;100235.66;4357311;32;33000;-64
2022/12/25 14:00:17;;;;;;;;;;;;;;;15.96;48.71;100238.34;4340913;32;34915;-64
2022/12/25 14:02:44;;;;;;;;;;;;;;;16.12;48.43;100238.66;4355284;32;35203;-63
2022/12/25 14:05:27;;;;;;;;;;;;;;;15.61;49.47;100237.72;4356838;32;35255;-64
2022/12/25 14:07:56;;;;;;;;;;;;;;;15.81;48.85;100230.59;4356784;32;33746;-64
2022/12/25 14:10:26;;;;;;;;;;;;;;;16.39;47.33;100234.44;4359590;32;34345;-64
2022/12/25 14:12:55;;;;;;;;;;;;;;;16.27;47.79;100241.81;4345656;32;35499;-64
2022/12/25 14:15:22;;;;;;;;;;;;;;;16.34;47.67;100240.28;4354507;32;34826;-64
2022/12/25 14:17:50;;;;;;;;;;;;;;;15.96;48.61;100232.94;4356714;32;32903;-64
2022/12/25 14:20:25;;;;;;;;;;;;;;;15.83;48.92;100242.12;4351267;32;34074;-64
2022/12/25 14:22:52;;;;;;;;;;;;;;;16.42;47.59;100236.84;4358715;32;34067;-64
2022/12/25 14:25:20;;;;;;;;;;;;;;;16.54;47.25;100239.28;4352314;32;34779;-64
2022/12/25 14:27:48;;;;;;;;;;;;;;;16.11;48.14;100245.03;4356843;32;33661;-64
2022/12/25 14:30:15;;;;;;;;;;;;;;;16.40;47.46;100249.63;4357279;32;34192;-64
2022/12/25 14:32:44;;;;;;;;;;;;;;;16.48;47.28;100249.81;4356422;32;32610;-64
2022/12/25 14:35:11;;;;;;;;;;;;;;;16.21;47.94;100251.34;4353828;32;34593;-65